Time;durP1;ratioP1;P1;durP2;ratioP2;P2;SDS_P1;SDS_P2;PMS_P1;PMS_P2;Temp;Humidity;BMP_temperature;BMP_pressure;BME280_temperature;BME280_humidity;BME280_pressure;Samples;Min_cycle;Max_cycle;Signal;HPM_P1;HPM_P2
2023/07/30 00:01:33;;;;;;;4.97;1.95;;;;;;;23.28;61.36;98763.78;4301910;33;33813;-94
2023/07/30 00:04:01;;;;;;;3.30;1.60;;;;;;;23.31;61.15;98766.28;4304361;33;34429;-93
2023/07/30 00:06:29;;;;;;;4.15;1.87;;;;;;;23.26;61.42;98768.31;4315103;33;34888;-93
2023/07/30 00:08:56;;;;;;;4.43;1.80;;;;;;;23.22;61.60;98766.72;4328888;33;34541;-93
2023/07/30 00:11:24;;;;;;;5.07;1.87;;;;;;;22.82;63.17;98773.72;4302375;33;34236;-96
2023/07/30 00:13:51;;;;;;;4.78;1.90;;;;;;;22.78;63.39;98769.50;4302876;33;34433;-92
2023/07/30 00:16:19;;;;;;;6.43;1.90;;;;;;;22.70;62.90;98766.34;4305907;33;33886;-95
2023/07/30 00:18:47;;;;;;;4.20;2.12;;;;;;;22.71;61.94;98757.47;4302813;33;34544;-95
2023/07/30 00:21:15;;;;;;;4.20;1.87;;;;;;;22.82;62.26;98760.50;4296493;33;33211;-92
2023/07/30 00:23:42;;;;;;;4.07;1.60;;;;;;;23.01;62.34;98760.59;4315706;33;33901;-94
2023/07/30 00:26:10;;;;;;;4.50;1.87;;;;;;;23.06;62.15;98749.81;4309555;33;33927;-93
2023/07/30 00:28:37;;;;;;;3.55;1.80;;;;;;;23.10;62.36;98751.37;4317905;33;33466;-93
2023/07/30 00:31:07;;;;;;;6.03;1.95;;;;;;;23.01;62.61;98757.94;4294258;33;34634;-95
2023/07/30 00:33:35;;;;;;;3.58;1.95;;;;;;;22.75;60.59;98760.84;4318828;33;33990;-93
2023/07/30 00:36:03;;;;;;;3.60;1.70;;;;;;;22.98;59.94;98759.88;4316557;33;34266;-94
2023/07/30 00:38:31;;;;;;;6.82;2.10;;;;;;;22.75;59.77;98756.41;4304178;33;34822;-93
2023/07/30 00:40:59;;;;;;;4.93;1.80;;;;;;;22.63;60.57;98761.38;4329153;33;33038;-92
2023/07/30 00:43:26;;;;;;;5.20;2.10;;;;;;;22.58;61.16;98749.22;4312935;33;33743;-92
2023/07/30 00:45:54;;;;;;;5.00;1.95;;;;;;;22.32;62.24;98746.81;4312152;33;34439;-91
2023/07/30 00:48:21;;;;;;;4.57;2.08;;;;;;;22.44;62.13;98741.03;4308830;33;33944;-92
2023/07/30 00:50:49;;;;;;;6.43;2.58;;;;;;;22.54;62.27;98741.47;4316583;33;32383;-91
2023/07/30 00:53:18;;;;;;;5.85;2.15;;;;;;;22.71;61.49;98738.97;4313755;33;33718;-93
2023/07/30 00:55:46;;;;;;;4.65;2.20;;;;;;;22.71;61.17;98725.75;4314573;33;34918;-92
2023/07/30 00:58:14;;;;;;;5.12;2.47;;;;;;;22.61;61.92;98729.72;4317773;33;34113;-90
2023/07/30 01:00:41;;;;;;;5.18;2.40;;;;;;;22.21;62.93;98728.78;4295422;33;32815;-92
2023/07/30 01:03:10;;;;;;;5.43;2.20;;;;;;;21.96;64.13;98734.16;4307151;33;32709;-90
2023/07/30 01:05:37;;;;;;;3.78;2.00;;;;;;;22.00;63.92;98742.81;4331461;33;35061;-94
2023/07/30 01:08:06;;;;;;;6.15;2.25;;;;;;;22.03;64.08;98737.41;4335393;33;33626;-89
2023/07/30 01:10:36;;;;;;;4.47;2.20;;;;;;;22.26;63.28;98737.38;4336482;33;32925;-91
2023/07/30 01:13:04;;;;;;;5.40;2.20;;;;;;;22.19;63.14;98741.19;4328446;33;33919;-90
2023/07/30 01:15:31;;;;;;;7.45;2.47;;;;;;;22.29;63.02;98739.88;4332125;33;34244;-90
2023/07/30 01:17:59;;;;;;;5.22;2.28;;;;;;;22.00;64.12;98734.91;4332065;33;33689;-90
2023/07/30 01:20:31;;;;;;;4.45;2.15;;;;;;;22.12;63.47;98723.84;4333643;33;34363;-90
2023/07/30 01:22:59;;;;;;;6.82;2.70;;;;;;;21.97;64.39;98719.19;4334400;33;33873;-90
2023/07/30 01:25:30;;;;;;;5.40;1.73;;;;;;;22.25;62.99;98709.25;4327923;33;35107;-91
2023/07/30 01:28:01;;;;;;;4.55;2.25;;;;;;;22.42;62.67;98695.31;4320219;33;34339;-90
2023/07/30 01:30:41;;;;;;;5.28;2.03;;;;;;;22.47;62.44;98697.78;4330690;33;32243;-93
2023/07/30 01:33:10;;;;;;;4.60;2.22;;;;;;;22.61;61.74;98691.88;4340681;33;33967;-92
2023/07/30 01:35:38;;;;;;;4.57;1.98;;;;;;;22.59;62.27;98686.69;4332168;33;33599;-90
2023/07/30 01:38:06;;;;;;;5.15;2.30;;;;;;;22.90;61.71;98685.31;4333602;33;32586;-91
2023/07/30 01:40:33;;;;;;;3.60;1.75;;;;;;;23.02;61.34;98684.78;4321234;33;33208;-92
2023/07/30 01:43:01;;;;;;;5.30;2.00;;;;;;;23.13;60.70;98671.94;4334018;33;34666;-92
2023/07/30 01:45:29;;;;;;;4.50;1.95;;;;;;;23.00;61.06;98684.00;4343520;33;34258;-92
2023/07/30 01:47:56;;;;;;;5.03;1.80;;;;;;;23.02;60.85;98675.06;4349198;32;33436;-90
2023/07/30 01:50:24;;;;;;;3.85;1.83;;;;;;;23.06;60.57;98681.91;4342216;33;34144;-92
2023/07/30 01:52:51;;;;;;;5.28;1.90;;;;;;;23.05;60.38;98679.34;4335171;33;34046;-91
2023/07/30 01:55:19;;;;;;;4.55;2.12;;;;;;;22.88;61.04;98684.50;4334242;33;34016;-91
2023/07/30 01:57:47;;;;;;;4.00;1.85;;;;;;;23.01;60.46;98677.78;4320982;33;34226;-92
2023/07/30 02:00:14;;;;;;;4.37;1.85;;;;;;;22.68;61.46;98678.34;4323265;33;33728;-91
2023/07/30 02:02:41;;;;;;;5.15;2.03;;;;;;;22.77;61.17;98675.28;4334103;33;33431;-92
2023/07/30 02:05:09;;;;;;;3.70;1.83;;;;;;;22.77;60.86;98680.59;4335891;33;33804;-92
2023/07/30 02:07:37;;;;;;;3.90;1.90;;;;;;;22.97;60.18;98681.50;4349064;32;33832;-93
2023/07/30 02:10:05;;;;;;;5.28;2.20;;;;;;;22.83;60.16;98687.38;4342252;33;33447;-92
2023/07/30 02:12:33;;;;;;;4.35;1.90;;;;;;;23.23;58.79;98681.16;4332383;33;33631;-92
2023/07/30 02:15:00;;;;;;;4.18;1.70;;;;;;;22.89;59.64;98680.97;4332540;33;33933;-92
2023/07/30 02:17:28;;;;;;;3.92;1.85;;;;;;;23.01;59.03;98672.50;4331695;33;33674;-92
2023/07/30 02:19:56;;;;;;;5.12;1.75;;;;;;;22.30;60.03;98686.12;4348359;32;33465;-90
2023/07/30 02:22:23;;;;;;;3.62;1.80;;;;;;;22.41;60.28;98677.75;4344894;33;33413;-90
2023/07/30 02:24:51;;;;;;;3.83;1.90;;;;;;;22.68;59.53;98678.34;4346376;33;33606;-91
2023/07/30 02:27:18;;;;;;;4.00;1.80;;;;;;;22.55;60.25;98679.81;4332869;33;33222;-92
2023/07/30 02:29:46;;;;;;;4.65;1.70;;;;;;;22.90;58.98;98680.03;4343589;33;34095;-93
2023/07/30 02:32:13;;;;;;;4.68;1.70;;;;;;;23.10;58.67;98682.63;4332605;33;33482;-92
2023/07/30 02:34:41;;;;;;;3.78;1.90;;;;;;;22.93;58.99;98680.78;4318220;33;33794;-92
2023/07/30 02:37:08;;;;;;;3.17;1.35;;;;;;;23.17;58.19;98677.94;4331789;33;34076;-91
2023/07/30 02:39:36;;;;;;;5.25;2.00;;;;;;;23.15;58.33;98674.53;4332791;33;33450;-93
2023/07/30 02:42:04;;;;;;;3.53;1.80;;;;;;;23.28;58.20;98681.78;4344942;33;33540;-92
2023/07/30 02:44:31;;;;;;;3.80;1.55;;;;;;;23.31;58.05;98692.22;4344625;33;34625;-92
2023/07/30 02:46:59;;;;;;;3.90;1.83;;;;;;;23.31;58.35;98686.94;4332751;33;34038;-91
2023/07/30 02:49:27;;;;;;;3.08;1.40;;;;;;;23.27;58.33;98680.09;4345903;33;34320;-91
2023/07/30 02:51:54;;;;;;;3.45;1.60;;;;;;;23.26;58.50;98682.78;4320204;33;34536;-93
2023/07/30 02:54:22;;;;;;;4.12;1.75;;;;;;;23.10;59.08;98690.56;4320452;33;33998;-92
2023/07/30 02:56:51;;;;;;;5.57;2.12;;;;;;;23.08;59.12;98675.72;4346162;33;34050;-92
2023/07/30 02:59:18;;;;;;;3.90;1.70;;;;;;;23.23;58.71;98673.22;4320316;33;33688;-92
2023/07/30 03:01:46;;;;;;;3.50;1.62;;;;;;;23.20;58.53;98688.38;4306807;33;32680;-92
2023/07/30 03:04:13;;;;;;;5.72;1.90;;;;;;;23.32;58.14;98682.50;4331680;33;34224;-92
2023/07/30 03:06:41;;;;;;;4.03;1.90;;;;;;;23.31;57.91;98681.66;4317912;33;33779;-90
2023/07/30 03:09:09;;;;;;;3.75;1.70;;;;;;;23.23;58.18;98686.44;4318096;33;33175;-93
2023/07/30 03:11:36;;;;;;;2.78;1.40;;;;;;;23.23;58.26;98678.50;4331645;33;34330;-93
2023/07/30 03:14:04;;;;;;;4.82;1.65;;;;;;;23.11;58.66;98672.91;4317709;33;32964;-92
2023/07/30 03:16:32;;;;;;;3.42;1.62;;;;;;;23.14;58.39;98678.94;4317875;33;33818;-92
2023/07/30 03:18:59;;;;;;;2.75;1.37;;;;;;;23.02;58.60;98685.62;4327585;32;33448;-92
2023/07/30 03:21:27;;;;;;;3.37;1.65;;;;;;;23.07;58.33;98685.44;4318766;33;32914;-90
2023/07/30 03:23:55;;;;;;;3.42;1.75;;;;;;;22.94;58.97;98686.91;4331258;33;34036;-92
2023/07/30 03:26:22;;;;;;;3.97;1.62;;;;;;;22.97;59.02;98694.72;4331769;33;34487;-92
2023/07/30 03:28:50;;;;;;;5.12;2.55;;;;;;;22.94;58.89;98695.69;4331127;33;33504;-92
2023/07/30 03:31:17;;;;;;;3.85;1.62;;;;;;;22.89;59.26;98697.69;4341295;33;33932;-92
2023/07/30 03:33:45;;;;;;;4.57;2.00;;;;;;;23.01;58.82;98704.22;4346177;33;33291;-91
2023/07/30 03:36:13;;;;;;;3.80;1.87;;;;;;;22.87;59.32;98703.94;4344286;33;34214;-90
2023/07/30 03:38:42;;;;;;;4.72;1.92;;;;;;;22.87;59.46;98706.59;4345813;33;33736;-91
2023/07/30 03:41:10;;;;;;;4.15;1.80;;;;;;;23.00;59.18;98702.53;4336245;33;33518;-91
2023/07/30 03:43:38;;;;;;;4.15;1.42;;;;;;;22.97;59.50;98702.66;4330974;33;34071;-91
2023/07/30 03:46:05;;;;;;;5.40;1.60;;;;;;;22.91;59.43;98706.41;4331923;33;34059;-92
2023/07/30 03:48:33;;;;;;;3.80;1.60;;;;;;;23.03;59.33;98712.94;4318062;33;33093;-91
2023/07/30 03:51:00;;;;;;;3.83;1.90;;;;;;;23.09;59.21;98702.09;4325810;33;33895;-91
2023/07/30 03:53:28;;;;;;;4.05;1.70;;;;;;;23.13;59.27;98695.72;4332438;33;34012;-91
2023/07/30 03:55:56;;;;;;;3.95;1.50;;;;;;;23.14;59.39;98702.72;4344210;33;33690;-92
2023/07/30 03:58:23;;;;;;;4.35;1.80;;;;;;;23.13;59.46;98703.66;4332665;33;33353;-91
2023/07/30 04:00:51;;;;;;;3.80;1.87;;;;;;;23.17;59.52;98718.44;4317417;33;32431;-92
2023/07/30 04:03:19;;;;;;;4.75;1.95;;;;;;;23.03;59.73;98711.16;4331008;33;33590;-92
2023/07/30 04:05:46;;;;;;;4.57;1.87;;;;;;;22.97;60.03;98713.22;4318034;33;33065;-91
2023/07/30 04:08:15;;;;;;;4.12;1.83;;;;;;;22.96;60.23;98717.66;4344255;33;33329;-91
2023/07/30 04:10:43;;;;;;;3.30;1.87;;;;;;;23.10;59.55;98711.72;4331262;33;33468;-92
2023/07/30 04:13:11;;;;;;;4.62;1.95;;;;;;;23.14;59.52;98717.72;4329475;33;32776;-92
2023/07/30 04:15:39;;;;;;;3.80;1.98;;;;;;;23.08;59.17;98721.53;4331696;33;33945;-92
2023/07/30 04:18:06;;;;;;;5.20;2.10;;;;;;;23.30;58.79;98716.97;4333881;33;32403;-93
2023/07/30 04:20:34;;;;;;;5.12;2.00;;;;;;;23.19;59.47;98719.25;4319725;33;34308;-92
2023/07/30 04:23:02;;;;;;;4.78;1.92;;;;;;;23.21;59.11;98725.31;4331957;33;33497;-93
2023/07/30 04:25:30;;;;;;;3.87;1.90;;;;;;;23.07;56.71;98719.81;4307260;33;33463;-92
2023/07/30 04:27:57;;;;;;;6.57;2.20;;;;;;;23.05;56.77;98719.03;4341002;32;33139;-92
2023/07/30 04:30:25;;;;;;;4.87;1.85;;;;;;;23.23;56.87;98720.81;4317775;33;34651;-91
2023/07/30 04:32:54;;;;;;;3.97;1.70;;;;;;;23.24;56.53;98727.81;4330360;33;34935;-92
2023/07/30 04:35:21;;;;;;;7.30;1.92;;;;;;;23.05;56.97;98732.25;4318202;33;33799;-91
2023/07/30 04:37:49;;;;;;;4.95;1.90;;;;;;;23.20;56.53;98725.41;4330382;33;33589;-92
2023/07/30 04:40:17;;;;;;;3.62;1.73;;;;;;;23.12;56.96;98728.41;4319821;33;33331;-91
2023/07/30 04:42:44;;;;;;;3.58;2.00;;;;;;;23.38;57.19;98731.62;4345276;33;34585;-91
2023/07/30 04:45:12;;;;;;;3.95;2.10;;;;;;;23.48;57.28;98720.53;4344980;33;33733;-90
2023/07/30 04:47:40;;;;;;;3.53;1.70;;;;;;;23.52;56.65;98729.19;4332259;33;32759;-90
2023/07/30 04:50:08;;;;;;;5.30;1.92;;;;;;;23.57;56.71;98724.56;4330648;33;33670;-91
2023/07/30 04:52:35;;;;;;;5.03;1.83;;;;;;;23.39;55.91;98725.41;4330815;33;34016;-92
2023/07/30 04:55:03;;;;;;;4.32;2.17;;;;;;;23.73;55.66;98730.00;4330652;33;33514;-92
2023/07/30 04:57:30;;;;;;;3.70;1.90;;;;;;;23.87;56.88;98737.28;4328493;33;33202;-92
2023/07/30 04:59:58;;;;;;;4.85;2.05;;;;;;;23.87;57.30;98739.94;4345282;33;33946;-93
2023/07/30 05:02:26;;;;;;;3.67;1.83;;;;;;;24.02;57.50;98747.12;4343799;33;34004;-91
2023/07/30 05:04:53;;;;;;;4.28;2.03;;;;;;;24.17;57.28;98746.38;4331644;33;34196;-92
2023/07/30 05:07:21;;;;;;;3.85;1.80;;;;;;;24.27;56.67;98744.97;4342720;33;34212;-92
2023/07/30 05:09:48;;;;;;;7.40;2.12;;;;;;;24.25;56.80;98754.81;4328843;33;33967;-93
2023/07/30 05:12:16;;;;;;;4.78;1.80;;;;;;;24.27;57.54;98747.62;4331676;33;34873;-92
2023/07/30 05:14:43;;;;;;;4.37;2.20;;;;;;;24.27;57.89;98752.06;4315531;33;34864;-91
2023/07/30 05:17:11;;;;;;;4.15;2.08;;;;;;;24.25;57.71;98746.00;4323800;33;32900;-94
2023/07/30 05:19:39;;;;;;;4.05;2.00;;;;;;;24.24;57.34;98745.16;4319206;33;32524;-92
2023/07/30 05:22:07;;;;;;;4.20;1.80;;;;;;;24.27;56.60;98742.31;4343129;33;33702;-93
2023/07/30 05:24:36;;;;;;;4.32;2.08;;;;;;;24.08;55.99;98735.37;4338063;33;33588;-93
2023/07/30 05:27:04;;;;;;;4.03;2.05;;;;;;;24.28;55.94;98740.53;4319807;33;33450;-92
2023/07/30 05:29:32;;;;;;;4.57;2.00;;;;;;;24.25;56.58;98732.75;4340062;33;33966;-90
2023/07/30 05:32:00;;;;;;;4.10;1.75;;;;;;;24.15;56.19;98731.50;4331223;33;34859;-93
2023/07/30 05:34:28;;;;;;;3.58;1.87;;;;;;;24.32;56.02;98734.19;4331011;33;32925;-91
2023/07/30 05:36:55;;;;;;;4.12;1.75;;;;;;;24.25;56.52;98732.75;4328316;33;33385;-92
2023/07/30 05:39:23;;;;;;;5.28;2.20;;;;;;;24.18;57.38;98737.50;4342876;33;33596;-91
2023/07/30 05:41:50;;;;;;;4.05;1.50;;;;;;;24.30;56.89;98741.31;4344472;33;33708;-93
2023/07/30 05:44:18;;;;;;;5.03;2.20;;;;;;;24.12;56.19;98743.09;4344283;33;33723;-93
2023/07/30 05:46:45;;;;;;;4.00;2.08;;;;;;;24.32;56.17;98742.13;4341341;33;33976;-93
2023/07/30 05:49:14;;;;;;;4.18;2.20;;;;;;;24.40;56.75;98742.63;4339668;33;34672;-92
2023/07/30 05:51:42;;;;;;;4.00;1.95;;;;;;;24.25;56.11;98741.56;4321154;33;34235;-91
2023/07/30 05:54:09;;;;;;;5.47;1.95;;;;;;;24.44;56.26;98754.78;4331823;33;34465;-93
2023/07/30 05:56:37;;;;;;;5.78;2.05;;;;;;;24.41;56.45;98748.78;4345475;33;33134;-91
2023/07/30 05:59:04;;;;;;;4.10;2.20;;;;;;;24.66;55.75;98748.38;4325908;33;33309;-91
2023/07/30 06:01:32;;;;;;;4.20;2.12;;;;;;;24.62;55.85;98746.81;4331848;33;34017;-91
2023/07/30 06:04:00;;;;;;;4.75;2.28;;;;;;;24.54;56.54;98752.50;4332397;33;34870;-91
2023/07/30 06:06:29;;;;;;;4.55;2.22;;;;;;;24.44;55.73;98753.94;4326853;33;33644;-92
2023/07/30 06:08:56;;;;;;;3.60;1.83;;;;;;;24.48;56.00;98752.84;4333035;33;34018;-92
2023/07/30 06:11:24;;;;;;;4.82;2.40;;;;;;;24.43;56.37;98758.34;4332769;33;34064;-93
2023/07/30 06:13:52;;;;;;;4.18;2.05;;;;;;;24.36;56.81;98758.69;4328609;33;33577;-92
2023/07/30 06:16:22;;;;;;;5.07;2.30;;;;;;;24.52;56.25;98757.91;4341169;33;33452;-92
2023/07/30 06:18:50;;;;;;;4.43;2.10;;;;;;;24.37;57.03;98760.44;4359832;32;33648;-92
2023/07/30 06:21:17;;;;;;;4.75;2.22;;;;;;;24.56;55.93;98755.94;4335423;32;33972;-92
2023/07/30 06:23:45;;;;;;;3.22;1.62;;;;;;;24.46;56.63;98760.00;4320704;33;33059;-93
2023/07/30 06:26:27;;;;;;;4.28;2.10;;;;;;;24.66;56.40;98757.19;4313126;33;33371;-93
2023/07/30 06:28:55;;;;;;;3.87;2.03;;;;;;;24.57;56.08;98760.31;4304160;33;34814;-91
2023/07/30 06:31:22;;;;;;;4.72;2.00;;;;;;;24.66;56.28;98757.19;4296611;33;34998;-90
2023/07/30 06:33:50;;;;;;;6.43;2.35;;;;;;;25.01;54.28;98749.19;4307419;33;33874;-89
2023/07/30 06:36:17;;;;;;;4.65;2.20;;;;;;;24.56;55.91;98763.91;4308716;33;33514;-90
2023/07/30 06:38:45;;;;;;;3.67;2.08;;;;;;;24.42;56.28;98756.63;4288322;33;33799;-89
2023/07/30 06:41:13;;;;;;;4.72;2.47;;;;;;;24.43;56.27;98752.19;4306867;33;34692;-92
2023/07/30 06:43:40;;;;;;;4.37;2.20;;;;;;;24.62;55.89;98762.72;4287983;33;33723;-90
2023/07/30 06:46:08;;;;;;;7.05;2.85;;;;;;;24.43;56.37;98757.47;4302164;33;34615;-91
2023/07/30 06:48:35;;;;;;;5.80;2.20;;;;;;;24.40;57.25;98758.53;4313525;33;34110;-91
2023/07/30 06:51:06;;;;;;;4.55;2.50;;;;;;;24.42;56.22;98753.13;4314337;33;34154;-91
2023/07/30 06:53:33;;;;;;;5.25;2.10;;;;;;;24.64;56.60;98755.56;4314363;33;34734;-91
2023/07/30 06:56:04;;;;;;;4.60;2.47;;;;;;;24.57;55.87;98760.31;4311696;33;33349;-92
2023/07/30 06:58:32;;;;;;;8.13;2.45;;;;;;;24.42;56.22;98764.59;4288406;33;33209;-89
2023/07/30 07:00:59;;;;;;;4.82;2.55;;;;;;;24.24;56.66;98769.00;4299951;33;34204;-91
2023/07/30 07:03:27;;;;;;;6.37;2.20;;;;;;;24.27;57.50;98779.41;4310355;33;34969;-91
2023/07/30 07:05:56;;;;;;;4.78;2.10;;;;;;;23.95;58.53;98782.78;4336787;33;33078;-91
2023/07/30 07:08:24;;;;;;;5.87;2.25;;;;;;;24.09;59.44;98782.97;4318893;33;33929;-90
2023/07/30 07:10:52;;;;;;;4.75;2.47;;;;;;;24.04;59.40;98787.63;4331215;33;34891;-92
2023/07/30 07:13:19;;;;;;;6.18;2.33;;;;;;;24.12;60.29;98797.84;4334742;33;34162;-92
2023/07/30 07:15:46;;;;;;;4.90;2.60;;;;;;;23.71;60.50;98801.53;4345808;33;33371;-89
2023/07/30 07:18:14;;;;;;;7.47;2.75;;;;;;;23.90;60.47;98801.50;4333379;33;33474;-90
2023/07/30 07:20:42;;;;;;;6.65;2.53;;;;;;;24.09;59.69;98812.09;4342123;32;34931;-90
2023/07/30 07:23:09;;;;;;;6.70;2.47;;;;;;;24.16;60.63;98812.66;4332547;33;33781;-88
2023/07/30 07:25:40;;;;;;;6.53;2.35;;;;;;;24.02;60.29;98816.00;4345467;33;34372;-90
2023/07/30 07:28:07;;;;;;;5.35;2.80;;;;;;;23.95;60.88;98814.56;4330101;33;34794;-89
2023/07/30 07:30:36;;;;;;;5.40;2.47;;;;;;;23.61;61.18;98821.38;4344857;33;34129;-90
2023/07/30 07:33:05;;;;;;;5.90;2.28;;;;;;;23.63;61.36;98822.16;4345642;33;34022;-90
2023/07/30 07:35:33;;;;;;;5.35;2.78;;;;;;;23.69;61.38;98821.94;4345853;33;32929;-90
2023/07/30 07:38:01;;;;;;;6.68;2.83;;;;;;;23.74;61.56;98822.56;4322826;33;33431;-88
2023/07/30 07:40:28;;;;;;;10.07;2.78;;;;;;;23.79;61.56;98825.88;4331550;33;34296;-87
2023/07/30 07:42:57;;;;;;;5.62;2.42;;;;;;;23.70;61.69;98826.28;4343132;33;34164;-90
2023/07/30 07:45:24;;;;;;;5.20;2.33;;;;;;;23.70;61.49;98826.28;4328957;33;33709;-90
2023/07/30 07:47:52;;;;;;;6.07;2.78;;;;;;;23.56;62.48;98823.38;4327328;33;33151;-90
2023/07/30 07:50:19;;;;;;;7.22;3.05;;;;;;;23.52;62.85;98822.69;4331227;33;34753;-90
2023/07/30 07:52:47;;;;;;;4.50;2.40;;;;;;;23.43;63.43;98838.94;4317010;33;32651;-91
2023/07/30 07:55:15;;;;;;;4.93;2.72;;;;;;;23.46;62.83;98836.16;4330823;33;33492;-91
2023/07/30 07:57:42;;;;;;;7.37;2.78;;;;;;;23.17;63.95;98842.75;4323313;33;35536;-88
2023/07/30 08:00:10;;;;;;;5.22;2.78;;;;;;;22.88;65.07;98843.09;4302897;33;32730;-90
2023/07/30 08:02:38;;;;;;;6.07;3.22;;;;;;;23.18;64.97;98847.09;4314896;33;34836;-91
2023/07/30 08:05:07;;;;;;;5.72;2.67;;;;;;;23.04;65.30;98845.06;4318196;33;33441;-90
2023/07/30 08:07:34;;;;;;;7.75;2.97;;;;;;;23.00;66.65;98840.84;4322901;33;34662;-92
2023/07/30 08:10:02;;;;;;;6.32;2.85;;;;;;;23.15;66.31;98849.91;4327850;33;35060;-92
2023/07/30 08:12:32;;;;;;;6.22;3.30;;;;;;;23.21;66.58;98848.75;4330811;33;33772;-90
2023/07/30 08:15:00;;;;;;;5.80;3.03;;;;;;;22.52;68.74;98854.28;4316741;33;33345;-92
2023/07/30 08:17:27;;;;;;;7.57;3.20;;;;;;;22.91;68.12;98856.19;4328356;33;34358;-93
2023/07/30 08:19:55;;;;;;;5.80;3.33;;;;;;;22.99;68.16;98856.75;4319020;33;33351;-92
2023/07/30 08:22:23;;;;;;;5.97;3.28;;;;;;;23.03;68.07;98860.97;4305479;33;33513;-92
2023/07/30 08:24:50;;;;;;;5.75;3.78;;;;;;;22.76;69.41;98855.91;4329410;33;33041;-92
2023/07/30 08:27:18;;;;;;;8.18;3.17;;;;;;;22.68;69.78;98855.38;4317177;33;33852;-92
2023/07/30 08:29:46;;;;;;;6.32;3.30;;;;;;;22.86;69.34;98851.09;4330704;33;34167;-91
2023/07/30 08:32:13;;;;;;;8.48;3.75;;;;;;;23.08;68.91;98859.03;4330059;33;34127;-91
2023/07/30 08:34:41;;;;;;;7.22;3.58;;;;;;;23.04;69.37;98849.50;4316116;33;33346;-90
2023/07/30 08:37:08;;;;;;;9.13;3.72;;;;;;;22.81;70.64;98848.66;4315834;33;33829;-91
2023/07/30 08:39:36;;;;;;;8.65;3.97;;;;;;;22.68;70.78;98850.09;4302801;33;32798;-90
2023/07/30 08:42:04;;;;;;;13.62;3.83;;;;;;;22.96;70.16;98849.84;4325705;33;33621;-90
2023/07/30 08:44:31;;;;;;;7.43;3.97;;;;;;;23.10;70.07;98843.94;4302797;33;33441;-91
2023/07/30 08:46:59;;;;;;;8.43;3.60;;;;;;;23.08;70.34;98848.44;4315905;33;33926;-90
2023/07/30 08:49:32;;;;;;;6.90;3.80;;;;;;;23.23;70.57;98857.50;4278808;33;33700;-91
2023/07/30 08:52:02;;;;;;;8.45;3.33;;;;;;;23.44;70.01;98855.69;4328557;33;34089;-92
2023/07/30 08:54:31;;;;;;;9.55;3.83;;;;;;;23.62;69.65;98849.56;4316366;33;32219;-91
2023/07/30 08:56:58;;;;;;;8.88;3.92;;;;;;;23.58;69.82;98847.12;4317300;33;33810;-90
2023/07/30 08:59:27;;;;;;;8.90;3.62;;;;;;;23.76;69.31;98841.87;4328607;33;35306;-90
2023/07/30 09:01:55;;;;;;;6.93;3.60;;;;;;;23.85;68.88;98839.75;4316892;33;34758;-90
2023/07/30 09:04:23;;;;;;;9.80;4.10;;;;;;;24.05;68.26;98847.59;4314790;33;33237;-89
2023/07/30 09:06:50;;;;;;;7.45;3.50;;;;;;;24.07;68.70;98839.59;4292377;33;32831;-89
2023/07/30 09:09:20;;;;;;;7.20;3.67;;;;;;;24.06;69.08;98849.34;4296522;33;32714;-90
2023/07/30 09:11:54;;;;;;;6.03;3.12;;;;;;;23.75;69.89;98845.47;4321457;33;34047;-90
2023/07/30 09:14:22;;;;;;;9.27;3.47;;;;;;;23.83;69.21;98846.88;4304714;33;33195;-90
2023/07/30 09:16:57;;;;;;;11.38;4.00;;;;;;;23.83;67.99;98844.22;4316800;33;34264;-91
2023/07/30 09:19:25;;;;;;;6.78;3.55;;;;;;;23.86;68.53;98847.59;4305162;33;33717;-91
2023/07/30 09:21:52;;;;;;;5.72;3.30;;;;;;;24.17;67.47;98854.97;4306904;33;34384;-91
2023/07/30 09:24:23;;;;;;;8.02;3.22;;;;;;;24.15;68.57;98851.53;4315842;33;32884;-93
2023/07/30 09:26:51;;;;;;;10.18;3.15;;;;;;;24.21;68.86;98851.25;4315931;33;33934;-91
2023/07/30 09:29:19;;;;;;;13.27;4.05;;;;;;;23.79;68.85;98851.50;4291882;33;32707;-90
2023/07/30 09:31:53;;;;;;;5.90;2.62;;;;;;;24.06;68.60;98849.34;4287572;33;33308;-90
2023/07/30 09:34:22;;;;;;;5.40;2.95;;;;;;;23.82;69.05;98845.16;4293454;33;32421;-91
2023/07/30 09:36:51;;;;;;;5.47;3.03;;;;;;;23.88;69.67;98840.47;4317392;33;33517;-91
2023/07/30 09:39:20;;;;;;;6.82;2.92;;;;;;;24.35;67.96;98850.56;4313273;33;34134;-91
2023/07/30 09:41:53;;;;;;;7.22;3.83;;;;;;;24.25;68.53;98847.53;4305769;33;33604;-91
2023/07/30 09:44:21;;;;;;;6.43;3.25;;;;;;;24.19;69.47;98841.66;4309859;33;32632;-92
2023/07/30 09:46:49;;;;;;;5.25;2.80;;;;;;;24.36;69.11;98843.47;4316912;33;33790;-92
2023/07/30 09:49:18;;;;;;;7.22;3.20;;;;;;;24.01;68.45;98853.97;4303512;33;34111;-89
2023/07/30 09:51:45;;;;;;;7.57;3.40;;;;;;;23.88;69.87;98843.09;4316574;33;34222;-91
2023/07/30 09:54:14;;;;;;;6.05;3.35;;;;;;;24.19;68.71;98839.00;4291587;33;32064;-90
2023/07/30 09:56:45;;;;;;;5.15;3.00;;;;;;;23.95;70.20;98838.38;4304309;33;34831;-92
2023/07/30 09:59:13;;;;;;;5.53;2.85;;;;;;;24.25;69.44;98839.56;4291653;33;33053;-91
2023/07/30 10:01:46;;;;;;;6.87;3.22;;;;;;;23.98;69.36;98835.56;4299240;33;34084;-91
2023/07/30 10:04:15;;;;;;;5.82;3.50;;;;;;;24.09;69.43;98849.16;4303976;33;33427;-90
2023/07/30 10:06:47;;;;;;;5.65;3.70;;;;;;;23.88;69.70;98845.75;4313584;33;33436;-89
2023/07/30 10:09:17;;;;;;;8.55;4.07;;;;;;;24.11;69.28;98854.41;4294561;33;34810;-90
2023/07/30 10:11:46;;;;;;;6.70;3.78;;;;;;;24.25;68.71;98855.47;4300962;33;33430;-91
2023/07/30 10:14:24;;;;;;;9.90;4.65;;;;;;;24.22;69.53;98852.09;4301141;33;33652;-89
2023/07/30 10:17:00;;;;;;;7.55;3.75;;;;;;;23.86;70.29;98852.88;4306735;33;33345;-91
2023/07/30 10:19:28;;;;;;;5.43;3.37;;;;;;;24.05;69.74;98850.25;4295358;33;32585;-93
2023/07/30 10:22:29;;;;;;;9.18;3.30;;;;;;;24.32;66.71;98850.75;4304789;33;33080;-90
2023/07/30 10:25:02;;;;;;;5.57;3.10;;;;;;;23.85;68.41;98850.31;4272398;33;32437;-91
2023/07/30 10:27:38;;;;;;;6.22;3.60;;;;;;;23.64;68.10;98849.47;4315493;33;33382;-90
2023/07/30 10:30:14;;;;;;;5.97;3.58;;;;;;;23.81;67.45;98848.75;4315148;33;34047;-91
2023/07/30 10:32:59;;;;;;;;;;;;;;;23.88;67.76;98839.59;4322629;33;33989;-92
2023/07/30 10:35:42;;;;;;;5.57;3.35;;;;;;;23.85;67.25;98832.66;4302485;33;31989;-95
2023/07/30 10:38:13;;;;;;;7.28;3.70;;;;;;;23.70;67.59;98831.56;4315380;33;34376;-91
2023/07/30 10:40:41;;;;;;;5.97;3.12;;;;;;;23.92;67.96;98826.16;4316699;33;34053;-92
2023/07/30 10:43:18;;;;;;;5.70;3.65;;;;;;;23.86;67.84;98828.22;4307571;33;34324;-94
2023/07/30 10:45:50;;;;;;;7.90;3.30;;;;;;;23.89;69.25;98825.44;4315945;33;33844;-92
2023/07/30 10:48:18;;;;;;;6.93;3.90;;;;;;;23.71;69.57;98825.34;4302170;33;34642;-92
2023/07/30 10:50:48;;;;;;;7.00;4.10;;;;;;;23.98;69.18;98824.97;4316340;33;33880;-95
2023/07/30 10:53:18;;;;;;;5.70;3.60;;;;;;;23.86;69.51;98830.84;4308621;33;34659;-91
2023/07/30 10:55:46;;;;;;;8.07;4.10;;;;;;;23.99;69.38;98834.66;4297310;33;32403;-92
2023/07/30 10:58:14;;;;;;;7.18;3.92;;;;;;;23.88;70.15;98834.31;4290859;33;33163;-91
2023/07/30 11:00:41;;;;;;;6.12;4.05;;;;;;;24.02;69.57;98831.88;4301955;33;34776;-93
2023/07/30 11:03:09;;;;;;;8.32;3.95;;;;;;;24.00;69.19;98829.28;4301627;33;34032;-93
2023/07/30 11:05:38;;;;;;;8.35;4.55;;;;;;;24.25;68.47;98831.62;4312007;33;33594;-92
2023/07/30 11:08:06;;;;;;;6.70;4.87;;;;;;;23.92;69.05;98826.16;4315387;33;33925;-92
2023/07/30 11:10:42;;;;;;;6.45;3.87;;;;;;;24.07;67.63;98829.00;4316646;33;33507;-90
2023/07/30 11:13:09;;;;;;;7.65;4.32;;;;;;;23.50;69.27;98828.97;4318775;33;33919;-91
2023/07/30 11:15:42;;;;;;;7.10;4.30;;;;;;;23.79;69.08;98828.50;4323882;33;32863;-93
2023/07/30 11:18:12;;;;;;;6.47;4.30;;;;;;;23.65;69.85;98838.00;4303172;33;33774;-91
2023/07/30 11:20:40;;;;;;;7.05;4.28;;;;;;;23.78;70.53;98845.31;4311181;33;34228;-91
2023/07/30 11:23:23;;;;;;;8.63;4.72;;;;;;;24.09;69.20;98835.91;4300573;33;34169;-91
2023/07/30 11:25:51;;;;;;;7.50;5.10;;;;;;;23.63;71.25;98837.19;4316181;33;33205;-91
2023/07/30 11:28:31;;;;;;;7.65;4.15;;;;;;;23.81;70.70;98827.56;4299920;33;33264;-90
2023/07/30 11:31:13;;;;;;;5.62;3.72;;;;;;;23.83;70.80;98834.53;4319045;33;33630;-93
2023/07/30 11:33:45;;;;;;;7.57;4.25;;;;;;;23.83;69.82;98833.66;4305814;33;32562;-91
2023/07/30 11:36:18;;;;;;;6.30;3.85;;;;;;;23.42;71.54;98842.53;4293553;33;31944;-91
2023/07/30 11:38:46;;;;;;;6.18;3.97;;;;;;;23.56;71.93;98839.25;4303178;33;33594;-92
2023/07/30 11:41:14;;;;;;;6.37;3.65;;;;;;;23.49;71.68;98840.47;4295530;33;34731;-92